Time;durP1;ratioP1;P1;durP2;ratioP2;P2;SDS_P1;SDS_P2;PMS_P1;PMS_P2;Temp;Humidity;BMP_temperature;BMP_pressure;BME280_temperature;BME280_humidity;BME280_pressure;Samples;Min_cycle;Max_cycle;Signal;HPM_P1;HPM_P2
2022/05/29 00:00:56;;;;;;;;;;;;;;;10.12;100.00;101767.88;2614313;36;19946;-56
2022/05/29 00:03:24;;;;;;;;;;;;;;;10.20;100.00;101777.22;2613930;36;19970;-54
2022/05/29 00:05:52;;;;;;;;;;;;;;;9.99;100.00;101769.72;2614353;31;19973;-56
2022/05/29 00:08:25;;;;;;;;;;;;;;;10.00;100.00;101775.00;2613170;36;20083;-56
2022/05/29 00:10:57;;;;;;;;;;;;;;;9.99;100.00;101780.47;2613981;36;20063;-56
2022/05/29 00:13:25;;;;;;;;;;;;;;;9.87;100.00;101787.59;2613253;36;20065;-53
2022/05/29 00:15:54;;;;;;;;;;;;;;;10.08;100.00;101787.88;2613742;36;20540;-56
2022/05/29 00:18:22;;;;;;;;;;;;;;;10.16;100.00;101790.88;2612659;36;19970;-59
2022/05/29 00:20:51;;;;;;;;;;;;;;;10.24;100.00;101797.56;2613643;31;20074;-57
2022/05/29 00:23:19;;;;;;;;;;;;;;;10.20;100.00;101796.91;2613408;36;20099;-57
2022/05/29 00:25:49;;;;;;;;;;;;;;;9.98;100.00;101793.06;2613952;36;20042;-56
2022/05/29 00:28:20;;;;;;;;;;;;;;;10.06;100.00;101787.13;2613906;36;20038;-55
2022/05/29 00:30:48;;;;;;;;;;;;;;;10.14;100.00;101786.59;2614081;36;20009;-53
2022/05/29 00:33:16;;;;;;;;;;;;;;;10.09;100.00;101778.84;2613486;36;19955;-56
2022/05/29 00:35:45;;;;;;;;;;;;;;;10.08;100.00;101781.66;2613478;36;20485;-57
2022/05/29 00:38:14;;;;;;;;;;;;;;;10.11;100.00;101776.03;2612559;36;19962;-55
2022/05/29 00:40:44;;;;;;;;;;;;;;;10.01;100.00;101775.84;2612432;36;19986;-54
2022/05/29 00:43:12;;;;;;;;;;;;;;;9.80;100.00;101781.81;2614277;36;20035;-55
2022/05/29 00:45:47;;;;;;;;;;;;;;;9.67;100.00;101778.22;2614101;36;20471;-54
2022/05/29 00:48:16;;;;;;;;;;;;;;;9.87;100.00;101774.16;2613968;36;19957;-53
2022/05/29 00:50:44;;;;;;;;;;;;;;;9.91;100.00;101770.28;2614845;36;20416;-54
2022/05/29 00:53:14;;;;;;;;;;;;;;;9.80;100.00;101768.38;2613860;36;20030;-54
2022/05/29 00:55:43;;;;;;;;;;;;;;;9.73;100.00;101771.56;2614054;36;19950;-54
2022/05/29 00:58:12;;;;;;;;;;;;;;;9.76;100.00;101757.91;2614182;36;20054;-58
2022/05/29 01:00:43;;;;;;;;;;;;;;;9.63;100.00;101757.94;2614231;36;20069;-55
2022/05/29 01:03:11;;;;;;;;;;;;;;;9.61;100.00;101743.72;2612847;36;20041;-60
2022/05/29 01:05:39;;;;;;;;;;;;;;;9.58;100.00;101749.31;2611929;36;20038;-56
2022/05/29 01:08:11;;;;;;;;;;;;;;;9.62;100.00;101743.63;2611559;36;20030;-57
2022/05/29 01:10:47;;;;;;;;;;;;;;;9.62;100.00;101738.25;2613728;36;20445;-52
2022/05/29 01:13:19;;;;;;;;;;;;;;;9.62;100.00;101738.25;2612968;36;20034;-54
2022/05/29 01:15:55;;;;;;;;;;;;;;;9.63;100.00;101734.59;2613269;31;19970;-52
2022/05/29 01:18:26;;;;;;;;;;;;;;;9.70;100.00;101736.84;2613242;31;20516;-56
2022/05/29 01:21:12;;;;;;;;;;;;;;;9.81;100.00;101742.31;2614493;47;19992;-58
2022/05/29 01:24:01;;;;;;;;;;;;;;;9.82;100.00;101731.47;2613029;31;20770;-59
2022/05/29 01:26:47;;;;;;;;;;;;;;;9.74;100.00;101725.75;2613944;36;20030;-55
2022/05/29 01:29:20;;;;;;;;;;;;;;;9.75;100.00;101729.31;2613558;31;20030;-53
2022/05/29 01:31:52;;;;;;;;;;;;;;;9.71;100.00;101725.97;2614341;31;20034;-52
2022/05/29 01:34:31;;;;;;;;;;;;;;;9.79;100.00;101731.69;2614372;31;20433;-56
2022/05/29 01:37:07;;;;;;;;;;;;;;;9.82;100.00;101734.16;2613542;36;19974;-58
2022/05/29 01:39:36;;;;;;;;;;;;;;;9.80;100.00;101727.16;2613263;36;20062;-51
2022/05/29 01:42:08;;;;;;;;;;;;;;;9.80;100.00;101733.41;2612703;36;20443;-56
2022/05/29 01:44:41;;;;;;;;;;;;;;;9.80;100.00;101725.34;2613024;36;20472;-54
2022/05/29 01:47:14;;;;;;;;;;;;;;;9.89;100.00;101723.78;2613206;36;20045;-56
2022/05/29 01:49:46;;;;;;;;;;;;;;;9.80;100.00;101719.09;2613346;36;19953;-55
2022/05/29 01:52:16;;;;;;;;;;;;;;;9.76;100.00;101713.09;2613175;31;20030;-55
2022/05/29 01:54:46;;;;;;;;;;;;;;;9.77;100.00;101714.78;2613304;36;20085;-56
2022/05/29 01:57:16;;;;;;;;;;;;;;;9.84;100.00;101719.75;2613598;36;20001;-55
2022/05/29 01:59:50;;;;;;;;;;;;;;;9.93;100.00;101702.94;2613295;36;20105;-54
2022/05/29 02:02:21;;;;;;;;;;;;;;;9.73;100.00;101712.44;2613113;36;19981;-55
2022/05/29 02:04:50;;;;;;;;;;;;;;;9.68;100.00;101707.38;2613613;36;19946;-47
2022/05/29 02:10:05;;;;;;;;;;;;;;;9.74;100.00;101706.94;2613741;31;19953;-53
2022/05/29 02:12:33;;;;;;;;;;;;;;;9.65;100.00;101704.91;2612759;36;20038;-54
2022/05/29 02:15:09;;;;;;;;;;;;;;;9.77;100.00;101704.03;2613563;36;19946;-52
2022/05/29 02:17:42;;;;;;;;;;;;;;;9.86;100.00;101702.50;2613549;36;19954;-55
2022/05/29 02:20:13;;;;;;;;;;;;;;;9.88;100.00;101702.41;2613192;36;20766;-51
2022/05/29 02:22:41;;;;;;;;;;;;;;;9.93;100.00;101687.66;2612531;36;20078;-52
2022/05/29 02:25:11;;;;;;;;;;;;;;;9.87;100.00;101671.97;2613508;36;20942;-56
2022/05/29 02:27:42;;;;;;;;;;;;;;;9.82;100.00;101679.53;2613286;36;20637;-54
2022/05/29 02:30:14;;;;;;;;;;;;;;;9.80;100.00;101676.94;2613817;36;19946;-54
2022/05/29 02:32:49;;;;;;;;;;;;;;;9.73;100.00;101681.03;2613023;36;19946;-55
2022/05/29 02:35:19;;;;;;;;;;;;;;;9.72;100.00;101676.63;2612841;31;20006;-54
2022/05/29 02:37:49;;;;;;;;;;;;;;;9.84;100.00;101669.50;2612905;36;20359;-54
2022/05/29 02:40:22;;;;;;;;;;;;;;;9.85;100.00;101667.66;2613081;36;20798;-53
2022/05/29 02:42:54;;;;;;;;;;;;;;;9.96;100.00;101673.13;2613244;36;19946;-56
2022/05/29 02:45:30;;;;;;;;;;;;;;;9.79;100.00;101668.97;2613398;36;19950;-59
2022/05/29 02:48:01;;;;;;;;;;;;;;;9.84;100.00;101664.13;2612772;36;20086;-52
2022/05/29 02:50:32;;;;;;;;;;;;;;;9.93;100.00;101663.44;2613738;36;20322;-57
2022/05/29 02:53:04;;;;;;;;;;;;;;;9.89;100.00;101663.78;2612807;36;19981;-59
2022/05/29 02:55:32;;;;;;;;;;;;;;;9.98;100.00;101668.47;2613604;36;20456;-53
2022/05/29 02:58:02;;;;;;;;;;;;;;;10.02;100.00;101669.13;2612545;36;20442;-54
2022/05/29 03:00:38;;;;;;;;;;;;;;;9.93;100.00;101665.28;2613096;36;19950;-54
2022/05/29 03:03:11;;;;;;;;;;;;;;;9.94;100.00;101658.94;2614061;31;20401;-53
2022/05/29 03:05:43;;;;;;;;;;;;;;;9.81;100.00;101657.13;2613287;36;20457;-54
2022/05/29 03:08:17;;;;;;;;;;;;;;;9.82;100.00;101644.56;2612654;36;20422;-56
2022/05/29 03:10:50;;;;;;;;;;;;;;;9.82;100.00;101645.41;2612954;36;19946;-56
2022/05/29 03:13:25;;;;;;;;;;;;;;;9.77;100.00;101642.19;2613793;36;20653;-53
2022/05/29 03:16:02;;;;;;;;;;;;;;;9.80;100.00;101647.38;2614154;36;20404;-53
2022/05/29 03:18:44;;;;;;;;;;;;;;;9.86;100.00;101650.56;2612485;36;20035;-55
2022/05/29 03:21:18;;;;;;;;;;;;;;;9.86;100.00;101637.13;2613071;36;19947;-50
2022/05/29 03:23:48;;;;;;;;;;;;;;;9.86;100.00;101640.66;2612881;36;20398;-58
2022/05/29 03:26:21;;;;;;;;;;;;;;;9.93;100.00;101638.41;2613116;36;20051;-56
2022/05/29 03:28:53;;;;;;;;;;;;;;;10.04;100.00;101630.41;2612749;36;20061;-55
2022/05/29 03:31:27;;;;;;;;;;;;;;;9.99;100.00;101636.09;2614240;36;20340;-54
2022/05/29 03:33:55;;;;;;;;;;;;;;;9.98;100.00;101642.47;2612819;36;20638;-55
2022/05/29 03:36:25;;;;;;;;;;;;;;;10.08;100.00;101639.09;2613634;32;20500;-54
2022/05/29 03:38:53;;;;;;;;;;;;;;;10.15;100.00;101627.75;2612340;31;19951;-53
2022/05/29 03:41:25;;;;;;;;;;;;;;;9.99;100.00;101637.94;2612550;36;20081;-58
2022/05/29 03:43:53;;;;;;;;;;;;;;;10.00;100.00;101634.28;2612877;36;20440;-52
2022/05/29 03:46:23;;;;;;;;;;;;;;;9.96;100.00;101624.72;2612753;36;19950;-52
2022/05/29 03:48:52;;;;;;;;;;;;;;;9.92;100.00;101623.22;2612561;36;19957;-57
2022/05/29 03:51:20;;;;;;;;;;;;;;;9.82;100.00;101618.53;2613206;36;19954;-56
2022/05/29 03:53:48;;;;;;;;;;;;;;;9.79;100.00;101620.56;2611720;36;19977;-56
2022/05/29 03:56:16;;;;;;;;;;;;;;;9.68;100.00;101623.22;2613097;36;20392;-57
2022/05/29 03:58:43;;;;;;;;;;;;;;;9.62;100.00;101622.66;2612725;36;20030;-57
2022/05/29 04:01:11;;;;;;;;;;;;;;;9.71;100.00;101618.44;2613247;36;20066;-59
2022/05/29 04:03:42;;;;;;;;;;;;;;;9.75;100.00;101619.09;2612484;36;20065;-58
2022/05/29 04:06:10;;;;;;;;;;;;;;;9.72;100.00;101612.13;2612892;31;20042;-56
2022/05/29 04:14:00;;;;;;;;;;;;;;;9.66;100.00;101612.56;2613093;36;19946;-57
2022/05/29 04:16:28;;;;;;;;;;;;;;;9.87;100.00;101609.28;2612995;36;20411;-57
2022/05/29 04:18:59;;;;;;;;;;;;;;;9.99;100.00;101622.66;2612927;36;20480;-57
2022/05/29 04:21:27;;;;;;;;;;;;;;;10.02;100.00;101615.34;2612246;36;20796;-56
2022/05/29 04:23:55;;;;;;;;;;;;;;;10.23;100.00;101629.00;2612098;31;19970;-57
2022/05/29 04:26:23;;;;;;;;;;;;;;;10.33;100.00;101619.28;2613001;36;19979;-59
2022/05/29 04:28:51;;;;;;;;;;;;;;;10.23;100.00;101627.19;2612718;36;20044;-56
2022/05/29 04:31:19;;;;;;;;;;;;;;;10.07;100.00;101624.78;2613138;36;20234;-59
2022/05/29 04:33:47;;;;;;;;;;;;;;;10.17;100.00;101620.44;2611928;36;20453;-58
2022/05/29 04:36:17;;;;;;;;;;;;;;;10.04;100.00;101618.78;2612630;36;19946;-58
2022/05/29 04:38:45;;;;;;;;;;;;;;;10.29;100.00;101621.34;2611972;36;19954;-58
2022/05/29 04:41:13;;;;;;;;;;;;;;;10.48;100.00;101617.28;2613661;36;19958;-58
2022/05/29 04:43:41;;;;;;;;;;;;;;;10.50;100.00;101621.59;2612759;36;20030;-57
2022/05/29 04:46:09;;;;;;;;;;;;;;;10.57;100.00;101623.81;2613988;31;20062;-58
2022/05/29 04:48:37;;;;;;;;;;;;;;;10.48;100.00;101612.78;2613734;36;20686;-58
2022/05/29 04:51:06;;;;;;;;;;;;;;;10.51;100.00;101608.97;2614415;36;20424;-59
2022/05/29 04:53:37;;;;;;;;;;;;;;;10.52;100.00;101619.63;2612196;36;19946;-58
2022/05/29 04:56:07;;;;;;;;;;;;;;;10.52;100.00;101603.47;2613783;36;20333;-58
2022/05/29 04:58:35;;;;;;;;;;;;;;;10.60;100.00;101593.94;2614586;31;19950;-60
2022/05/29 05:01:04;;;;;;;;;;;;;;;10.59;100.00;101593.09;2613508;36;20768;-60
2022/05/29 05:03:33;;;;;;;;;;;;;;;10.51;100.00;101591.00;2613198;36;20042;-62
2022/05/29 05:06:01;;;;;;;;;;;;;;;10.63;100.00;101591.03;2613369;36;20058;-57
2022/05/29 05:08:29;;;;;;;;;;;;;;;10.80;100.00;101595.13;2611721;36;20054;-62
2022/05/29 05:10:59;;;;;;;;;;;;;;;10.92;100.00;101598.69;2613170;36;20058;-59
2022/05/29 05:13:27;;;;;;;;;;;;;;;10.86;100.00;101592.81;2613165;36;20054;-58
2022/05/29 05:16:01;;;;;;;;;;;;;;;11.04;100.00;101587.81;2613375;36;20548;-58
2022/05/29 05:18:29;;;;;;;;;;;;;;;11.38;100.00;101589.63;2612866;36;20474;-58
2022/05/29 05:20:57;;;;;;;;;;;;;;;11.50;100.00;101583.25;2613829;36;20801;-61
2022/05/29 05:23:25;;;;;;;;;;;;;;;11.24;100.00;101592.59;2613326;31;20082;-58
2022/05/29 05:25:53;;;;;;;;;;;;;;;11.04;100.00;101584.22;2613600;36;20058;-62
2022/05/29 05:28:23;;;;;;;;;;;;;;;11.08;100.00;101593.78;2612894;36;19982;-58
2022/05/29 05:30:51;;;;;;;;;;;;;;;11.26;100.00;101587.94;2613932;36;19958;-63
2022/05/29 05:33:19;;;;;;;;;;;;;;;11.25;100.00;101595.16;2613095;36;20055;-58
2022/05/29 05:35:47;;;;;;;;;;;;;;;11.09;100.00;101594.69;2613098;36;20122;-64
2022/05/29 05:38:15;;;;;;;;;;;;;;;11.19;100.00;101599.19;2612321;36;19977;-60
2022/05/29 05:40:43;;;;;;;;;;;;;;;11.30;100.00;101609.09;2613934;31;19958;-58
2022/05/29 05:43:11;;;;;;;;;;;;;;;11.17;100.00;101603.00;2614125;31;20022;-59
2022/05/29 05:45:44;;;;;;;;;;;;;;;11.14;100.00;101604.06;2613482;36;20026;-56
2022/05/29 05:48:12;;;;;;;;;;;;;;;10.79;100.00;101615.81;2612123;36;20038;-56
2022/05/29 05:50:40;;;;;;;;;;;;;;;10.86;100.00;101614.34;2613445;36;20126;-59
2022/05/29 05:53:09;;;;;;;;;;;;;;;10.48;100.00;101607.41;2612738;36;20041;-59
2022/05/29 05:55:39;;;;;;;;;;;;;;;10.68;100.00;101613.06;2612389;31;20487;-55
2022/05/29 05:58:07;;;;;;;;;;;;;;;10.71;100.00;101609.31;2612057;31;19946;-58
2022/05/29 06:00:35;;;;;;;;;;;;;;;10.68;100.00;101613.06;2613459;31;20405;-57
2022/05/29 06:03:06;;;;;;;;;;;;;;;10.66;100.00;101597.03;2612399;36;20058;-57
2022/05/29 06:05:34;;;;;;;;;;;;;;;10.63;100.00;101599.09;2613425;31;20086;-58
2022/05/29 06:08:02;;;;;;;;;;;;;;;10.52;100.00;101594.56;2612827;36;20580;-56
2022/05/29 06:10:30;;;;;;;;;;;;;;;10.46;100.00;101586.94;2612829;36;20050;-60
2022/05/29 06:13:02;;;;;;;;;;;;;;;10.34;100.00;101586.06;2613601;36;20058;-58
2022/05/29 06:15:30;;;;;;;;;;;;;;;10.42;100.00;101597.06;2612632;36;20459;-58
2022/05/29 06:17:58;;;;;;;;;;;;;;;10.34;100.00;101588.75;2613315;36;20451;-60
2022/05/29 06:20:28;;;;;;;;;;;;;;;10.34;100.00;101596.81;2612886;36;19981;-60
2022/05/29 06:22:56;;;;;;;;;;;;;;;10.40;100.00;101590.97;2612746;31;20030;-56
2022/05/29 06:25:26;;;;;;;;;;;;;;;10.36;100.00;101592.16;2613509;36;20082;-58
2022/05/29 06:27:54;;;;;;;;;;;;;;;10.33;100.00;101592.38;2613318;36;19954;-58
2022/05/29 06:30:22;;;;;;;;;;;;;;;10.66;100.00;101599.75;2612679;31;20049;-59
2022/05/29 06:32:50;;;;;;;;;;;;;;;10.68;100.00;101596.94;2612733;36;19986;-55
2022/05/29 06:35:18;;;;;;;;;;;;;;;10.65;100.00;101605.25;2612815;36;19981;-56
2022/05/29 06:37:49;;;;;;;;;;;;;;;10.71;100.00;101604.75;2612855;36;20106;-54
2022/05/29 06:40:17;;;;;;;;;;;;;;;10.90;100.00;101601.50;2613517;36;20447;-58
2022/05/29 06:42:45;;;;;;;;;;;;;;;10.75;100.00;101603.56;2612429;36;19962;-66
2022/05/29 06:45:14;;;;;;;;;;;;;;;10.82;100.00;101601.22;2613317;36;20404;-58
2022/05/29 06:47:42;;;;;;;;;;;;;;;10.66;100.00;101597.03;2612845;31;19954;-57
2022/05/29 06:50:11;;;;;;;;;;;;;;;10.63;100.00;101604.47;2613545;36;20079;-57
2022/05/29 06:52:39;;;;;;;;;;;;;;;10.65;100.00;101603.41;2612124;36;20034;-56
2022/05/29 06:55:11;;;;;;;;;;;;;;;11.04;100.00;101601.28;2613559;36;20034;-60
2022/05/29 06:57:41;;;;;;;;;;;;;;;11.38;100.00;101605.78;2612970;36;20071;-56
2022/05/29 07:08:12;;;;;;;;;;;;;;;11.78;100.00;101594.50;2612063;36;20459;-57
2022/05/29 07:10:42;;;;;;;;;;;;;;;11.97;100.00;101585.78;2612922;36;19950;-58
2022/05/29 07:13:11;;;;;;;;;;;;;;;12.08;100.00;101585.72;2613017;36;19962;-57
2022/05/29 07:15:39;;;;;;;;;;;;;;;12.02;100.00;101588.94;2612825;36;20528;-59
2022/05/29 07:18:07;;;;;;;;;;;;;;;11.75;100.00;101595.59;2612434;36;20077;-58
2022/05/29 07:20:36;;;;;;;;;;;;;;;11.87;100.00;101596.44;2612859;36;20420;-56
2022/05/29 07:23:04;;;;;;;;;;;;;;;11.55;100.00;101586.44;2612141;36;19958;-60
2022/05/29 07:25:32;;;;;;;;;;;;;;;11.31;100.00;101597.38;2612589;36;19958;-57
2022/05/29 07:28:05;;;;;;;;;;;;;;;11.13;100.00;101596.13;2612797;36;19950;-54
2022/05/29 07:30:33;;;;;;;;;;;;;;;11.10;100.00;101591.84;2613285;36;19950;-57
2022/05/29 07:33:01;;;;;;;;;;;;;;;11.21;100.00;101594.53;2611411;31;20005;-57
2022/05/29 07:35:29;;;;;;;;;;;;;;;10.86;100.00;101584.72;2612553;36;20029;-59
2022/05/29 07:37:57;;;;;;;;;;;;;;;11.25;100.00;101589.78;2612679;36;20063;-57
2022/05/29 07:40:26;;;;;;;;;;;;;;;11.75;100.00;101586.66;2612541;31;20062;-54
2022/05/29 07:45:37;;;;;;;;;;;;;;;11.77;100.00;101584.69;2612760;36;19970;-56
2022/05/29 07:48:05;;;;;;;;;;;;;;;12.18;100.00;101583.13;2612867;36;20026;-61
2022/05/29 07:50:33;;;;;;;;;;;;;;;12.03;100.00;101581.72;2612563;36;20034;-54
2022/05/29 07:53:02;;;;;;;;;;;;;;;11.71;100.00;101596.81;2612068;31;20045;-58
2022/05/29 07:55:30;;;;;;;;;;;;;;;12.20;100.00;101591.94;2616124;36;19976;-61
2022/05/29 07:57:58;;;;;;;;;;;;;;;12.30;100.00;101589.31;2612765;36;20436;-58
2022/05/29 08:00:26;;;;;;;;;;;;;;;11.90;100.00;101585.38;2612761;36;19985;-60
2022/05/29 08:02:57;;;;;;;;;;;;;;;11.91;100.00;101594.31;2611854;36;19951;-58
2022/05/29 08:05:25;;;;;;;;;;;;;;;11.94;100.00;101590.56;2612973;36;20029;-58
2022/05/29 08:07:54;;;;;;;;;;;;;;;11.86;100.00;101593.84;2612304;36;19951;-59
2022/05/29 08:10:22;;;;;;;;;;;;;;;11.88;100.00;101597.28;2612174;31;20026;-61
2022/05/29 08:12:50;;;;;;;;;;;;;;;11.99;100.00;101589.19;2612932;31;20077;-58
2022/05/29 08:15:19;;;;;;;;;;;;;;;11.90;100.00;101595.31;2614255;36;20058;-58
2022/05/29 08:17:47;;;;;;;;;;;;;;;11.52;100.00;101602.84;2613011;36;20033;-57
2022/05/29 08:20:18;;;;;;;;;;;;;;;11.51;100.00;101594.88;2613565;36;20070;-55
2022/05/29 08:22:46;;;;;;;;;;;;;;;11.67;100.00;101594.50;2612756;36;20087;-54
2022/05/29 08:30:41;;;;;;;;;;;;;;;11.82;100.00;101581.59;2613375;36;20030;-59
2022/05/29 08:33:11;;;;;;;;;;;;;;;12.02;100.00;101571.91;2613431;36;19951;-58
2022/05/29 08:35:43;;;;;;;;;;;;;;;12.10;100.00;101580.19;2613832;36;19969;-59
2022/05/29 08:38:12;;;;;;;;;;;;;;;12.37;100.00;101576.16;2613875;36;19950;-59
2022/05/29 08:40:42;;;;;;;;;;;;;;;11.90;100.00;101582.69;2615214;31;20101;-60
2022/05/29 08:43:12;;;;;;;;;;;;;;;11.99;100.00;101582.94;2613394;36;20498;-59
2022/05/29 08:45:41;;;;;;;;;;;;;;;11.61;100.00;101589.63;2613273;36;20424;-59
2022/05/29 08:48:10;;;;;;;;;;;;;;;11.53;100.00;101604.56;2613331;36;19954;-59
2022/05/29 08:50:44;;;;;;;;;;;;;;;11.55;100.00;101602.59;2613725;36;20482;-58
2022/05/29 08:53:17;;;;;;;;;;;;;;;11.94;100.00;101598.63;2612944;36;19963;-55
2022/05/29 08:55:50;;;;;;;;;;;;;;;12.17;100.00;101592.19;2614647;31;20475;-57
2022/05/29 08:58:25;;;;;;;;;;;;;;;12.15;100.00;101587.94;2612328;36;20066;-56
2022/05/29 09:00:59;;;;;;;;;;;;;;;11.75;100.00;101587.50;2613847;31;20082;-57
2022/05/29 09:03:42;;;;;;;;;;;;;;;12.12;100.00;101583.63;2614077;31;19981;-59
2022/05/29 09:06:15;;;;;;;;;;;;;;;12.39;100.00;101588.53;2614392;31;20369;-58
2022/05/29 09:08:45;;;;;;;;;;;;;;;11.82;100.00;101587.88;2613763;36;20474;-56
2022/05/29 09:11:16;;;;;;;;;;;;;;;11.72;100.00;101589.59;2613944;31;20109;-55
2022/05/29 09:13:48;;;;;;;;;;;;;;;11.79;100.00;101590.78;2613280;36;20477;-57
2022/05/29 09:16:17;;;;;;;;;;;;;;;11.66;100.00;101598.19;2614274;31;20042;-55
2022/05/29 09:18:50;;;;;;;;;;;;;;;11.74;100.00;101587.63;2613489;36;20043;-55
2022/05/29 09:21:24;;;;;;;;;;;;;;;11.44;100.00;101593.66;2613535;36;19958;-52
2022/05/29 09:23:58;;;;;;;;;;;;;;;11.69;100.00;101597.91;2612454;36;20383;-55
2022/05/29 09:26:29;;;;;;;;;;;;;;;11.87;100.00;101590.19;2614090;31;20069;-55
2022/05/29 09:28:58;;;;;;;;;;;;;;;11.69;100.00;101592.53;2613813;36;20447;-55
2022/05/29 09:31:27;;;;;;;;;;;;;;;11.77;100.00;101586.53;2613319;36;19947;-61
2022/05/29 09:33:56;;;;;;;;;;;;;;;11.79;100.00;101589.94;2613458;36;19950;-58
2022/05/29 09:36:30;;;;;;;;;;;;;;;11.78;100.00;101574.75;2614194;36;20074;-59
2022/05/29 09:39:00;;;;;;;;;;;;;;;11.80;100.00;101576.34;2613632;36;20530;-59
2022/05/29 09:41:30;;;;;;;;;;;;;;;12.34;100.00;101579.13;2614215;36;20090;-58
2022/05/29 09:44:08;;;;;;;;;;;;;;;12.60;100.00;101571.47;2613883;36;20551;-58
2022/05/29 09:46:37;;;;;;;;;;;;;;;12.90;100.00;101573.38;2614128;36;20065;-60
2022/05/29 09:51:52;;;;;;;;;;;;;;;12.87;100.00;101570.97;2613952;36;19954;-57
2022/05/29 09:54:25;;;;;;;;;;;;;;;12.54;100.00;101561.22;2612679;36;20066;-58
2022/05/29 09:56:53;;;;;;;;;;;;;;;12.43;100.00;101559.44;2613942;36;20054;-58
2022/05/29 09:59:24;;;;;;;;;;;;;;;12.31;100.00;101560.47;2613833;36;20405;-57
2022/05/29 10:02:02;;;;;;;;;;;;;;;12.34;100.00;101573.75;2612530;36;19961;-61
2022/05/29 10:04:33;;;;;;;;;;;;;;;12.04;100.00;101560.00;2612686;36;20066;-62
2022/05/29 10:07:13;;;;;;;;;;;;;;;12.22;100.00;101568.38;2612163;31;19955;-62
2022/05/29 10:09:57;;;;;;;;;;;;;;;12.23;100.00;101567.41;2613197;36;20448;-58
2022/05/29 10:12:34;;;;;;;;;;;;;;;11.96;100.00;101564.31;2613526;36;19954;-58
2022/05/29 10:15:02;;;;;;;;;;;;;;;12.27;100.00;101555.34;2613300;36;19998;-59
2022/05/29 10:17:38;;;;;;;;;;;;;;;12.32;100.00;101549.53;2612864;36;20128;-59
2022/05/29 10:20:26;;;;;;;;;;;;;;;12.38;100.00;101562.53;2611725;36;19958;-59
2022/05/29 10:22:57;;;;;;;;;;;;;;;12.82;100.00;101559.69;2610821;36;20559;-61
2022/05/29 10:25:27;;;;;;;;;;;;;;;13.04;100.00;101557.81;2613762;36;20029;-64
2022/05/29 10:27:56;;;;;;;;;;;;;;;12.96;100.00;101553.94;2612349;36;20067;-61
2022/05/29 10:30:33;;;;;;;;;;;;;;;13.43;100.00;101548.03;2611776;36;19966;-63
2022/05/29 10:33:03;;;;;;;;;;;;;;;13.72;100.00;101552.66;2613464;36;19946;-62
2022/05/29 10:35:33;;;;;;;;;;;;;;;13.63;100.00;101545.38;2595589;31;20624;-63
2022/05/29 10:38:18;;;;;;;;;;;;;;;14.14;100.00;101540.72;2613818;31;20414;-60
2022/05/29 10:40:47;;;;;;;;;;;;;;;14.40;100.00;101542.81;2612634;36;20014;-61
2022/05/29 10:43:17;;;;;;;;;;;;;;;14.02;100.00;101538.16;2611869;31;19977;-61
2022/05/29 10:45:47;;;;;;;;;;;;;;;14.21;100.00;101536.44;2612465;36;19950;-59
2022/05/29 10:48:36;;;;;;;;;;;;;;;13.28;100.00;101534.00;2609628;36;19973;-59
2022/05/29 10:51:09;;;;;;;;;;;;;;;13.16;100.00;101537.78;2611926;36;20142;-58
2022/05/29 10:53:44;;;;;;;;;;;;;;;12.90;100.00;101535.56;2612548;36;20070;-58
2022/05/29 10:56:16;;;;;;;;;;;;;;;13.46;100.00;101536.09;2612264;36;19950;-64
2022/05/29 10:58:59;;;;;;;;;;;;;;;13.56;100.00;101530.69;2614113;36;19989;-60
2022/05/29 11:04:23;;;;;;;;;;;;;;;13.82;100.00;101528.31;2611986;36;19953;-62
2022/05/29 11:07:07;;;;;;;;;;;;;;;14.44;100.00;101526.16;2613791;36;20495;-61
2022/05/29 11:09:44;;;;;;;;;;;;;;;14.20;100.00;101526.59;2612855;36;19954;-60
2022/05/29 11:12:19;;;;;;;;;;;;;;;14.58;100.00;101527.56;2612138;36;19954;-59
2022/05/29 11:14:54;;;;;;;;;;;;;;;14.31;100.00;101514.75;2612511;36;19960;-59
2022/05/29 11:17:25;;;;;;;;;;;;;;;14.25;100.00;101523.47;2611965;36;20064;-59
2022/05/29 11:20:02;;;;;;;;;;;;;;;13.79;100.00;101515.06;2610598;36;20030;-60
2022/05/29 11:22:33;;;;;;;;;;;;;;;13.89;100.00;101513.22;2612658;36;20522;-62
2022/05/29 11:25:13;;;;;;;;;;;;;;;13.83;100.00;101522.75;2612864;36;20037;-60
2022/05/29 11:27:51;;;;;;;;;;;;;;;14.14;100.00;101521.78;2613223;36;20522;-60
2022/05/29 11:30:24;;;;;;;;;;;;;;;14.35;100.00;101522.47;2612720;31;19950;-66
2022/05/29 11:32:58;;;;;;;;;;;;;;;14.94;100.00;101516.91;2612902;36;20557;-62
2022/05/29 11:35:37;;;;;;;;;;;;;;;14.54;100.00;101515.28;2606205;36;20087;-62
2022/05/29 11:38:15;;;;;;;;;;;;;;;14.35;100.00;101516.19;2614188;31;20438;-60
2022/05/29 11:40:48;;;;;;;;;;;;;;;14.07;100.00;101502.53;2613204;36;19981;-63
2022/05/29 11:43:22;;;;;;;;;;;;;;;13.83;100.00;101505.69;2613898;36;20034;-64
2022/05/29 11:51:22;;;;;;;;;;;;;;;13.96;100.00;101498.13;2615110;36;20390;-58
2022/05/29 11:53:52;;;;;;;;;;;;;;;13.73;100.00;101494.00;2613791;36;20026;-58
2022/05/29 11:56:27;;;;;;;;;;;;;;;13.89;100.00;101510.50;2614235;36;20058;-62
2022/05/29 11:59:01;;;;;;;;;;;;;;;13.83;100.00;101494.84;2613701;36;19946;-63
2022/05/29 12:01:33;;;;;;;;;;;;;;;13.44;100.00;101500.19;2613021;36;20038;-62
2022/05/29 12:04:03;;;;;;;;;;;;;;;13.18;100.00;101500.69;2612018;36;19958;-62
2022/05/29 12:06:36;;;;;;;;;;;;;;;12.89;100.00;101509.53;2612991;36;20352;-61
2022/05/29 12:09:10;;;;;;;;;;;;;;;12.53;100.00;101511.75;2611890;36;20039;-59
2022/05/29 12:11:44;;;;;;;;;;;;;;;12.73;100.00;101511.88;2612233;36;19954;-59
2022/05/29 12:14:16;;;;;;;;;;;;;;;12.72;100.00;101505.63;2613385;36;20400;-63
2022/05/29 12:16:46;;;;;;;;;;;;;;;12.86;100.00;101504.41;2613442;36;20473;-62
2022/05/29 12:19:17;;;;;;;;;;;;;;;13.35;100.00;101501.03;2613683;31;19957;-58
2022/05/29 12:21:48;;;;;;;;;;;;;;;13.57;100.00;101495.38;2613870;36;20467;-58
2022/05/29 12:24:19;;;;;;;;;;;;;;;13.09;100.00;101496.13;2613559;36;20064;-58
2022/05/29 12:26:53;;;;;;;;;;;;;;;13.43;100.00;101495.81;2612828;36;20041;-61
2022/05/29 12:29:22;;;;;;;;;;;;;;;13.98;100.00;101493.41;2614552;31;20046;-63
2022/05/29 12:31:52;;;;;;;;;;;;;;;13.57;100.00;101489.97;2614305;31;20438;-60
2022/05/29 12:34:22;;;;;;;;;;;;;;;13.99;100.00;101484.31;2613730;36;20057;-59
2022/05/29 12:37:05;;;;;;;;;;;;;;;14.36;100.00;101486.25;2613574;36;20071;-58
2022/05/29 12:39:43;;;;;;;;;;;;;;;14.13;100.00;101490.28;2613404;36;19978;-59
2022/05/29 12:42:20;;;;;;;;;;;;;;;14.00;100.00;101485.16;2614001;36;20075;-62
2022/05/29 12:44:57;;;;;;;;;;;;;;;13.58;100.00;101486.28;2613589;36;20371;-58
2022/05/29 12:47:33;;;;;;;;;;;;;;;13.31;100.00;101485.06;2613521;36;20030;-58
2022/05/29 12:50:21;;;;;;;;;;;;;;;13.33;100.00;101490.34;2614266;36;20566;-58
2022/05/29 12:53:04;;;;;;;;;;;;;;;13.58;100.00;101480.88;2613267;36;20030;-60
2022/05/29 12:55:40;;;;;;;;;;;;;;;13.74;100.00;101487.59;2613516;31;20471;-64
2022/05/29 12:58:17;;;;;;;;;;;;;;;13.92;100.00;101480.47;2614018;36;19946;-58
2022/05/29 13:00:52;;;;;;;;;;;;;;;14.35;100.00;101484.56;2612941;31;20030;-58
2022/05/29 13:03:39;;;;;;;;;;;;;;;14.22;100.00;101484.00;2613958;31;20856;-62
2022/05/29 13:06:22;;;;;;;;;;;;;;;13.77;100.00;101476.50;2614162;31;20474;-62
2022/05/29 13:09:10;;;;;;;;;;;;;;;13.39;100.00;101476.28;2613609;36;20034;-59
2022/05/29 13:11:39;;;;;;;;;;;;;;;13.78;100.00;101480.88;2614824;36;20322;-59
2022/05/29 13:14:11;;;;;;;;;;;;;;;13.59;100.00;101474.47;2613747;36;19955;-62
2022/05/29 13:16:40;;;;;;;;;;;;;;;13.77;100.00;101480.03;2614172;36;20098;-59
2022/05/29 13:19:17;;;;;;;;;;;;;;;13.84;100.00;101480.34;2613907;36;20344;-59
2022/05/29 13:21:55;;;;;;;;;;;;;;;13.61;100.00;101483.28;2614222;36;19958;-60
2022/05/29 13:24:24;;;;;;;;;;;;;;;13.13;100.00;101492.13;2613398;36;19962;-59
2022/05/29 13:27:07;;;;;;;;;;;;;;;13.23;100.00;101494.88;2614258;31;20026;-59